Ridgebury Kathrine Z — V7CT5 — position and weather

sailwx.info

Track history (hours):
 
Tides and Currents Weather Stations Pressure Air Temp Water Temp Dewpoint Dewpoint Depression Visibility Wind Speed Wind Dir Waves Ship Positions

Ridgebury Kathrine Z

Last reported at 2018-Jan-23 00:51 UTC. Time now 2018-Feb-23 16:54 UTC.
Position N 09°42' W 079°59'.
Warning: this ship's position is 31 days out of date.

Length 182 m; draft 7.8 m.

Type: Tanker. MMSI: 538005320.

Date/timePositionNaut miles runAvg speedWind from/ knotsBaromVisibWave heightAir tempDewpointWater temp
2018-Jan-23 00:51N 09°42' W 079°59'711.3
2018-Jan-23 00:12N 09°35' W 079°57'210.3
2018-Jan-23 00:00N 09°33' W 079°56'5 9.4
2018-Jan-22 23:30N 09°28' W 079°57'3 5.3
2018-Jan-22 22:59N 09°26' W 079°57'0 0.2
2018-Jan-22 22:29N 09°26' W 079°57'0 0.0
2018-Jan-22 21:59N 09°26' W 079°57'0 0.1
2018-Jan-22 21:29N 09°26' W 079°57'0 0.2
2018-Jan-22 20:59N 09°26' W 079°57'0 0.1
2018-Jan-22 20:29N 09°26' W 079°57'0 0.0
2018-Jan-22 19:59N 09°26' W 079°57'0 0.0
2018-Jan-22 19:29N 09°26' W 079°57'0 0.0
2018-Jan-22 18:59N 09°26' W 079°57'0 0.0
2018-Jan-22 18:29N 09°26' W 079°57'0 0.1
2018-Jan-22 17:59N 09°26' W 079°57'0 0.3
2018-Jan-22 17:26N 09°26' W 079°57'2 3.7
2018-Jan-22 17:00N 09°25' W 079°55'5 9.4
2018-Jan-22 16:30N 09°20' W 079°55'3 6.9
2018-Jan-22 16:00N 09°17' W 079°55'1 1.1
2018-Jan-22 15:29N 09°16' W 079°55'0 0.5
2018-Jan-22 15:00N 09°16' W 079°55'1 1.1
2018-Jan-22 14:30N 09°16' W 079°55'1 1.3
2018-Jan-22 14:00N 09°15' W 079°55'3 5.7
2018-Jan-22 13:27N 09°12' W 079°54'6 9.9
2018-Jan-22 12:50N 09°09' W 079°49'  
Track history (hours):
 
Tides and Currents Weather Stations Pressure Air Temp Water Temp Dewpoint Dewpoint Depression Visibility Wind Speed Wind Dir Waves Ship Positions

Ridgebury Kathrine Z

Last reported at 2018-Jan-23 00:51 UTC. Time now 2018-Feb-23 16:54 UTC.
Position N 09°42' W 079°59'.
Warning: this ship's position is 31 days out of date.

Length 182 m; draft 7.8 m.

Type: Tanker. MMSI: 538005320.

Date/timePositionNaut miles runAvg speedWind from/ knotsBaromVisibWave heightAir tempDewpointWater temp
2018-Jan-23 00:51N 09°42' W 079°59'711.3
2018-Jan-23 00:12N 09°35' W 079°57'210.3
2018-Jan-23 00:00N 09°33' W 079°56'5 9.4
2018-Jan-22 23:30N 09°28' W 079°57'3 5.3
2018-Jan-22 22:59N 09°26' W 079°57'0 0.2
2018-Jan-22 22:29N 09°26' W 079°57'0 0.0
2018-Jan-22 21:59N 09°26' W 079°57'0 0.1
2018-Jan-22 21:29N 09°26' W 079°57'0 0.2
2018-Jan-22 20:59N 09°26' W 079°57'0 0.1
2018-Jan-22 20:29N 09°26' W 079°57'0 0.0
2018-Jan-22 19:59N 09°26' W 079°57'0 0.0
2018-Jan-22 19:29N 09°26' W 079°57'0 0.0
2018-Jan-22 18:59N 09°26' W 079°57'0 0.0
2018-Jan-22 18:29N 09°26' W 079°57'0 0.1
2018-Jan-22 17:59N 09°26' W 079°57'0 0.3
2018-Jan-22 17:26N 09°26' W 079°57'2 3.7
2018-Jan-22 17:00N 09°25' W 079°55'5 9.4
2018-Jan-22 16:30N 09°20' W 079°55'3 6.9
2018-Jan-22 16:00N 09°17' W 079°55'1 1.1
2018-Jan-22 15:29N 09°16' W 079°55'0 0.5
2018-Jan-22 15:00N 09°16' W 079°55'1 1.1
2018-Jan-22 14:30N 09°16' W 079°55'1 1.3
2018-Jan-22 14:00N 09°15' W 079°55'3 5.7
2018-Jan-22 13:27N 09°12' W 079°54'6 9.9
2018-Jan-22 12:50N 09°09' W 079°49'  

Dump ship's entire track history